sensor_id;sensor_type;location;lat;lon;timestamp;P1;durP1;ratioP1;P2;durP2;ratioP2
6223;SDS011;3145;42.726;23.342;2022-11-24T00:01:11;33.77;;;25.40;;
6223;SDS011;3145;42.726;23.342;2022-11-24T00:03:40;34.70;;;25.57;;
6223;SDS011;3145;42.726;23.342;2022-11-24T00:06:08;26.70;;;21.20;;
6223;SDS011;3145;42.726;23.342;2022-11-24T00:08:37;30.37;;;23.23;;
6223;SDS011;3145;42.726;23.342;2022-11-24T00:11:06;27.73;;;21.47;;
6223;SDS011;3145;42.726;23.342;2022-11-24T00:13:34;33.93;;;23.17;;
6223;SDS011;3145;42.726;23.342;2022-11-24T00:16:04;33.80;;;24.10;;
6223;SDS011;3145;42.726;23.342;2022-11-24T00:18:32;33.47;;;23.13;;
6223;SDS011;3145;42.726;23.342;2022-11-24T00:20:58;33.57;;;23.23;;
6223;SDS011;3145;42.726;23.342;2022-11-24T00:23:25;38.07;;;26.20;;
6223;SDS011;3145;42.726;23.342;2022-11-24T00:25:52;46.97;;;28.57;;
6223;SDS011;3145;42.726;23.342;2022-11-24T00:28:20;39.20;;;26.73;;
6223;SDS011;3145;42.726;23.342;2022-11-24T00:30:47;42.87;;;25.97;;
6223;SDS011;3145;42.726;23.342;2022-11-24T00:33:13;41.43;;;26.00;;
6223;SDS011;3145;42.726;23.342;2022-11-24T00:35:40;43.70;;;27.13;;
6223;SDS011;3145;42.726;23.342;2022-11-24T00:38:07;42.40;;;27.00;;
6223;SDS011;3145;42.726;23.342;2022-11-24T00:40:33;40.07;;;26.93;;
6223;SDS011;3145;42.726;23.342;2022-11-24T00:43:00;44.00;;;28.60;;
6223;SDS011;3145;42.726;23.342;2022-11-24T00:45:29;42.27;;;27.00;;
6223;SDS011;3145;42.726;23.342;2022-11-24T00:47:55;55.37;;;31.27;;
6223;SDS011;3145;42.726;23.342;2022-11-24T00:50:22;43.77;;;28.20;;
6223;SDS011;3145;42.726;23.342;2022-11-24T00:52:49;41.07;;;29.10;;
6223;SDS011;3145;42.726;23.342;2022-11-24T00:55:15;41.77;;;28.77;;
6223;SDS011;3145;42.726;23.342;2022-11-24T00:57:42;44.13;;;28.93;;
6223;SDS011;3145;42.726;23.342;2022-11-24T01:00:09;54.43;;;32.80;;
6223;SDS011;3145;42.726;23.342;2022-11-24T01:02:39;55.57;;;32.23;;
6223;SDS011;3145;42.726;23.342;2022-11-24T01:05:06;58.07;;;33.27;;
6223;SDS011;3145;42.726;23.342;2022-11-24T01:07:33;58.70;;;34.17;;
6223;SDS011;3145;42.726;23.342;2022-11-24T01:10:00;58.47;;;34.63;;
6223;SDS011;3145;42.726;23.342;2022-11-24T01:12:27;57.03;;;29.20;;
6223;SDS011;3145;42.726;23.342;2022-11-24T01:14:54;59.90;;;31.40;;
6223;SDS011;3145;42.726;23.342;2022-11-24T01:17:20;53.50;;;31.23;;
6223;SDS011;3145;42.726;23.342;2022-11-24T01:19:48;49.53;;;28.37;;
6223;SDS011;3145;42.726;23.342;2022-11-24T01:22:15;94.57;;;46.47;;
6223;SDS011;3145;42.726;23.342;2022-11-24T01:24:42;79.03;;;40.00;;
6223;SDS011;3145;42.726;23.342;2022-11-24T01:27:09;65.83;;;37.57;;
6223;SDS011;3145;42.726;23.342;2022-11-24T01:29:36;58.93;;;37.53;;
6223;SDS011;3145;42.726;23.342;2022-11-24T01:32:03;58.57;;;40.77;;
6223;SDS011;3145;42.726;23.342;2022-11-24T01:34:30;52.87;;;34.43;;
6223;SDS011;3145;42.726;23.342;2022-11-24T01:36:58;58.43;;;38.43;;
6223;SDS011;3145;42.726;23.342;2022-11-24T01:39:24;64.40;;;39.30;;
6223;SDS011;3145;42.726;23.342;2022-11-24T01:41:51;63.33;;;37.70;;
6223;SDS011;3145;42.726;23.342;2022-11-24T01:44:19;67.70;;;38.13;;
6223;SDS011;3145;42.726;23.342;2022-11-24T01:46:47;63.03;;;36.10;;
6223;SDS011;3145;42.726;23.342;2022-11-24T01:49:20;70.63;;;40.97;;
6223;SDS011;3145;42.726;23.342;2022-11-24T01:51:52;57.97;;;35.30;;
6223;SDS011;3145;42.726;23.342;2022-11-24T01:54:25;66.87;;;38.50;;
6223;SDS011;3145;42.726;23.342;2022-11-24T01:56:56;62.13;;;35.67;;
6223;SDS011;3145;42.726;23.342;2022-11-24T01:59:28;59.30;;;33.57;;
6223;SDS011;3145;42.726;23.342;2022-11-24T02:01:55;59.20;;;32.87;;
6223;SDS011;3145;42.726;23.342;2022-11-24T02:04:22;58.90;;;31.43;;
6223;SDS011;3145;42.726;23.342;2022-11-24T02:06:52;52.50;;;31.60;;
6223;SDS011;3145;42.726;23.342;2022-11-24T02:09:25;51.67;;;31.90;;
6223;SDS011;3145;42.726;23.342;2022-11-24T02:11:57;55.67;;;33.47;;
6223;SDS011;3145;42.726;23.342;2022-11-24T02:14:26;57.83;;;34.77;;
6223;SDS011;3145;42.726;23.342;2022-11-24T02:16:53;64.83;;;44.03;;
6223;SDS011;3145;42.726;23.342;2022-11-24T02:19:22;60.40;;;40.30;;
6223;SDS011;3145;42.726;23.342;2022-11-24T02:21:59;59.30;;;41.70;;
6223;SDS011;3145;42.726;23.342;2022-11-24T02:24:31;47.47;;;28.23;;
6223;SDS011;3145;42.726;23.342;2022-11-24T02:27:06;43.53;;;26.27;;
6223;SDS011;3145;42.726;23.342;2022-11-24T02:29:36;30.17;;;21.93;;
6223;SDS011;3145;42.726;23.342;2022-11-24T02:32:03;35.50;;;24.57;;
6223;SDS011;3145;42.726;23.342;2022-11-24T02:34:32;32.27;;;23.07;;
6223;SDS011;3145;42.726;23.342;2022-11-24T02:36:59;33.17;;;23.27;;
6223;SDS011;3145;42.726;23.342;2022-11-24T02:39:26;31.03;;;22.20;;
6223;SDS011;3145;42.726;23.342;2022-11-24T02:41:53;32.60;;;22.37;;
6223;SDS011;3145;42.726;23.342;2022-11-24T02:44:25;33.07;;;22.23;;
6223;SDS011;3145;42.726;23.342;2022-11-24T02:47:02;27.80;;;20.10;;
6223;SDS011;3145;42.726;23.342;2022-11-24T02:49:30;29.67;;;20.70;;
6223;SDS011;3145;42.726;23.342;2022-11-24T02:51:57;32.30;;;19.80;;
6223;SDS011;3145;42.726;23.342;2022-11-24T02:54:24;27.70;;;20.10;;
6223;SDS011;3145;42.726;23.342;2022-11-24T02:56:50;34.67;;;21.30;;
6223;SDS011;3145;42.726;23.342;2022-11-24T02:59:17;32.10;;;19.77;;
6223;SDS011;3145;42.726;23.342;2022-11-24T03:01:46;35.80;;;23.50;;
6223;SDS011;3145;42.726;23.342;2022-11-24T03:04:12;34.30;;;22.83;;
6223;SDS011;3145;42.726;23.342;2022-11-24T03:06:39;33.37;;;23.73;;
6223;SDS011;3145;42.726;23.342;2022-11-24T03:09:07;41.57;;;24.83;;
6223;SDS011;3145;42.726;23.342;2022-11-24T03:11:34;35.00;;;24.93;;
6223;SDS011;3145;42.726;23.342;2022-11-24T03:14:01;32.60;;;24.43;;
6223;SDS011;3145;42.726;23.342;2022-11-24T03:16:28;42.83;;;25.93;;
6223;SDS011;3145;42.726;23.342;2022-11-24T03:18:56;37.27;;;25.93;;
6223;SDS011;3145;42.726;23.342;2022-11-24T03:21:23;37.20;;;26.53;;
6223;SDS011;3145;42.726;23.342;2022-11-24T03:23:50;38.83;;;27.20;;
6223;SDS011;3145;42.726;23.342;2022-11-24T03:26:17;39.47;;;28.67;;
6223;SDS011;3145;42.726;23.342;2022-11-24T03:28:46;36.67;;;26.93;;
6223;SDS011;3145;42.726;23.342;2022-11-24T03:31:12;31.17;;;23.97;;
6223;SDS011;3145;42.726;23.342;2022-11-24T03:33:39;34.93;;;22.57;;
6223;SDS011;3145;42.726;23.342;2022-11-24T03:36:08;31.67;;;21.30;;
6223;SDS011;3145;42.726;23.342;2022-11-24T03:38:35;29.23;;;21.13;;
6223;SDS011;3145;42.726;23.342;2022-11-24T03:41:02;25.20;;;18.90;;
6223;SDS011;3145;42.726;23.342;2022-11-24T03:43:28;23.33;;;17.80;;
6223;SDS011;3145;42.726;23.342;2022-11-24T03:45:55;25.80;;;18.60;;
6223;SDS011;3145;42.726;23.342;2022-11-24T03:48:22;29.53;;;19.80;;
6223;SDS011;3145;42.726;23.342;2022-11-24T03:50:52;28.87;;;20.33;;
6223;SDS011;3145;42.726;23.342;2022-11-24T03:53:22;28.17;;;21.70;;
6223;SDS011;3145;42.726;23.342;2022-11-24T03:55:50;31.83;;;23.20;;
6223;SDS011;3145;42.726;23.342;2022-11-24T03:58:17;37.77;;;26.80;;
6223;SDS011;3145;42.726;23.342;2022-11-24T04:00:44;45.03;;;29.97;;
6223;SDS011;3145;42.726;23.342;2022-11-24T04:03:11;43.63;;;29.13;;
6223;SDS011;3145;42.726;23.342;2022-11-24T04:05:38;45.80;;;31.87;;
6223;SDS011;3145;42.726;23.342;2022-11-24T04:08:05;45.77;;;32.60;;
6223;SDS011;3145;42.726;23.342;2022-11-24T04:10:33;42.53;;;32.33;;
6223;SDS011;3145;42.726;23.342;2022-11-24T04:13:02;52.73;;;36.80;;
6223;SDS011;3145;42.726;23.342;2022-11-24T04:15:28;66.47;;;41.77;;
6223;SDS011;3145;42.726;23.342;2022-11-24T04:17:55;64.60;;;38.37;;
6223;SDS011;3145;42.726;23.342;2022-11-24T04:20:22;61.83;;;36.87;;
6223;SDS011;3145;42.726;23.342;2022-11-24T04:22:49;66.27;;;38.73;;
6223;SDS011;3145;42.726;23.342;2022-11-24T04:25:16;56.53;;;35.37;;
6223;SDS011;3145;42.726;23.342;2022-11-24T04:27:44;58.63;;;35.87;;
6223;SDS011;3145;42.726;23.342;2022-11-24T04:30:15;60.57;;;36.97;;
6223;SDS011;3145;42.726;23.342;2022-11-24T04:32:42;114.77;;;59.27;;
6223;SDS011;3145;42.726;23.342;2022-11-24T04:35:09;121.03;;;63.37;;
6223;SDS011;3145;42.726;23.342;2022-11-24T04:37:36;84.47;;;47.80;;
6223;SDS011;3145;42.726;23.342;2022-11-24T04:40:03;97.23;;;50.73;;
6223;SDS011;3145;42.726;23.342;2022-11-24T04:42:31;122.73;;;64.37;;
6223;SDS011;3145;42.726;23.342;2022-11-24T04:44:59;95.80;;;54.00;;
6223;SDS011;3145;42.726;23.342;2022-11-24T04:47:26;80.30;;;47.63;;
6223;SDS011;3145;42.726;23.342;2022-11-24T04:49:53;74.47;;;43.37;;
6223;SDS011;3145;42.726;23.342;2022-11-24T04:52:20;79.77;;;46.03;;
6223;SDS011;3145;42.726;23.342;2022-11-24T04:54:48;82.37;;;48.33;;
6223;SDS011;3145;42.726;23.342;2022-11-24T04:57:15;86.43;;;48.50;;
6223;SDS011;3145;42.726;23.342;2022-11-24T04:59:43;86.87;;;50.63;;
6223;SDS011;3145;42.726;23.342;2022-11-24T05:02:12;86.83;;;49.03;;
6223;SDS011;3145;42.726;23.342;2022-11-24T05:04:39;85.00;;;49.00;;
6223;SDS011;3145;42.726;23.342;2022-11-24T05:07:05;78.80;;;45.83;;
6223;SDS011;3145;42.726;23.342;2022-11-24T05:09:32;79.20;;;47.30;;
6223;SDS011;3145;42.726;23.342;2022-11-24T05:12:19;86.20;;;49.50;;
6223;SDS011;3145;42.726;23.342;2022-11-24T05:14:46;78.60;;;44.73;;
6223;SDS011;3145;42.726;23.342;2022-11-24T05:17:14;77.63;;;46.80;;
6223;SDS011;3145;42.726;23.342;2022-11-24T05:19:40;67.30;;;43.77;;
6223;SDS011;3145;42.726;23.342;2022-11-24T05:22:07;80.50;;;46.63;;
6223;SDS011;3145;42.726;23.342;2022-11-24T05:24:34;63.73;;;42.13;;
6223;SDS011;3145;42.726;23.342;2022-11-24T05:27:01;68.23;;;41.20;;
6223;SDS011;3145;42.726;23.342;2022-11-24T05:29:27;61.93;;;40.17;;
6223;SDS011;3145;42.726;23.342;2022-11-24T05:31:54;47.70;;;30.93;;
6223;SDS011;3145;42.726;23.342;2022-11-24T05:34:22;36.40;;;26.30;;
6223;SDS011;3145;42.726;23.342;2022-11-24T05:36:49;34.40;;;24.50;;
6223;SDS011;3145;42.726;23.342;2022-11-24T05:39:19;32.10;;;24.13;;
6223;SDS011;3145;42.726;23.342;2022-11-24T05:41:46;39.43;;;25.93;;
6223;SDS011;3145;42.726;23.342;2022-11-24T05:44:12;36.63;;;26.67;;
6223;SDS011;3145;42.726;23.342;2022-11-24T05:46:39;40.83;;;26.97;;
6223;SDS011;3145;42.726;23.342;2022-11-24T05:49:06;38.57;;;26.83;;
6223;SDS011;3145;42.726;23.342;2022-11-24T05:51:34;40.67;;;27.70;;
6223;SDS011;3145;42.726;23.342;2022-11-24T05:54:01;36.17;;;26.20;;
6223;SDS011;3145;42.726;23.342;2022-11-24T05:56:27;35.57;;;26.00;;
6223;SDS011;3145;42.726;23.342;2022-11-24T05:58:54;37.37;;;24.50;;
6223;SDS011;3145;42.726;23.342;2022-11-24T06:01:21;35.47;;;24.57;;
6223;SDS011;3145;42.726;23.342;2022-11-24T06:03:48;32.17;;;23.37;;
6223;SDS011;3145;42.726;23.342;2022-11-24T06:06:15;35.40;;;24.90;;
6223;SDS011;3145;42.726;23.342;2022-11-24T06:08:43;34.57;;;24.03;;
6223;SDS011;3145;42.726;23.342;2022-11-24T06:11:09;35.17;;;22.73;;
6223;SDS011;3145;42.726;23.342;2022-11-24T06:13:46;45.17;;;25.57;;
6223;SDS011;3145;42.726;23.342;2022-11-24T06:16:13;42.10;;;26.70;;
6223;SDS011;3145;42.726;23.342;2022-11-24T06:18:40;47.73;;;33.20;;
6223;SDS011;3145;42.726;23.342;2022-11-24T06:21:07;36.97;;;28.27;;
6223;SDS011;3145;42.726;23.342;2022-11-24T06:23:34;60.93;;;41.73;;
6223;SDS011;3145;42.726;23.342;2022-11-24T06:26:02;54.20;;;38.47;;
6223;SDS011;3145;42.726;23.342;2022-11-24T06:28:29;57.87;;;37.10;;
6223;SDS011;3145;42.726;23.342;2022-11-24T06:30:59;43.03;;;28.20;;
6223;SDS011;3145;42.726;23.342;2022-11-24T06:33:28;36.80;;;23.77;;
6223;SDS011;3145;42.726;23.342;2022-11-24T06:35:58;41.87;;;24.90;;
6223;SDS011;3145;42.726;23.342;2022-11-24T06:38:26;41.10;;;27.53;;
6223;SDS011;3145;42.726;23.342;2022-11-24T06:40:57;45.10;;;29.83;;
6223;SDS011;3145;42.726;23.342;2022-11-24T06:43:26;61.87;;;36.07;;
6223;SDS011;3145;42.726;23.342;2022-11-24T06:45:54;54.63;;;35.33;;
6223;SDS011;3145;42.726;23.342;2022-11-24T06:48:21;107.00;;;63.50;;
6223;SDS011;3145;42.726;23.342;2022-11-24T06:50:48;104.57;;;54.53;;
6223;SDS011;3145;42.726;23.342;2022-11-24T06:53:14;78.40;;;48.13;;
6223;SDS011;3145;42.726;23.342;2022-11-24T06:55:41;63.60;;;42.17;;
6223;SDS011;3145;42.726;23.342;2022-11-24T06:58:08;65.27;;;37.13;;
6223;SDS011;3145;42.726;23.342;2022-11-24T07:00:37;46.47;;;33.67;;
6223;SDS011;3145;42.726;23.342;2022-11-24T07:03:04;47.30;;;32.83;;
6223;SDS011;3145;42.726;23.342;2022-11-24T07:05:31;43.13;;;31.63;;
6223;SDS011;3145;42.726;23.342;2022-11-24T07:07:57;38.90;;;29.10;;
6223;SDS011;3145;42.726;23.342;2022-11-24T07:10:25;38.80;;;28.57;;
6223;SDS011;3145;42.726;23.342;2022-11-24T07:12:51;32.17;;;23.50;;
6223;SDS011;3145;42.726;23.342;2022-11-24T07:15:18;26.67;;;19.13;;
6223;SDS011;3145;42.726;23.342;2022-11-24T07:17:46;26.67;;;18.67;;
6223;SDS011;3145;42.726;23.342;2022-11-24T07:20:13;26.43;;;18.90;;
6223;SDS011;3145;42.726;23.342;2022-11-24T07:22:39;30.20;;;18.17;;
6223;SDS011;3145;42.726;23.342;2022-11-24T07:25:06;26.50;;;16.93;;
6223;SDS011;3145;42.726;23.342;2022-11-24T07:27:34;24.63;;;18.63;;
6223;SDS011;3145;42.726;23.342;2022-11-24T07:30:01;36.80;;;25.20;;
6223;SDS011;3145;42.726;23.342;2022-11-24T07:32:28;23.47;;;17.10;;
6223;SDS011;3145;42.726;23.342;2022-11-24T07:34:56;23.20;;;16.30;;
6223;SDS011;3145;42.726;23.342;2022-11-24T07:37:23;26.80;;;16.43;;
6223;SDS011;3145;42.726;23.342;2022-11-24T07:39:49;21.67;;;16.00;;
6223;SDS011;3145;42.726;23.342;2022-11-24T07:42:16;23.87;;;16.00;;
6223;SDS011;3145;42.726;23.342;2022-11-24T07:44:43;29.83;;;16.70;;
6223;SDS011;3145;42.726;23.342;2022-11-24T07:47:09;41.70;;;19.07;;
6223;SDS011;3145;42.726;23.342;2022-11-24T07:49:36;25.07;;;18.57;;
6223;SDS011;3145;42.726;23.342;2022-11-24T07:52:04;40.63;;;22.63;;
6223;SDS011;3145;42.726;23.342;2022-11-24T07:54:33;19.10;;;15.63;;
6223;SDS011;3145;42.726;23.342;2022-11-24T07:57:00;21.23;;;17.07;;
6223;SDS011;3145;42.726;23.342;2022-11-24T07:59:26;25.50;;;17.83;;
6223;SDS011;3145;42.726;23.342;2022-11-24T08:01:53;23.50;;;17.20;;
6223;SDS011;3145;42.726;23.342;2022-11-24T08:04:20;24.23;;;17.17;;
6223;SDS011;3145;42.726;23.342;2022-11-24T08:06:47;23.87;;;19.13;;
6223;SDS011;3145;42.726;23.342;2022-11-24T08:09:15;22.93;;;16.77;;
6223;SDS011;3145;42.726;23.342;2022-11-24T08:11:41;29.47;;;17.67;;
6223;SDS011;3145;42.726;23.342;2022-11-24T08:14:08;28.73;;;22.00;;
6223;SDS011;3145;42.726;23.342;2022-11-24T08:16:35;36.13;;;26.60;;
6223;SDS011;3145;42.726;23.342;2022-11-24T08:19:02;34.43;;;24.57;;
6223;SDS011;3145;42.726;23.342;2022-11-24T08:21:29;27.23;;;18.83;;
6223;SDS011;3145;42.726;23.342;2022-11-24T08:23:56;20.23;;;15.53;;
6223;SDS011;3145;42.726;23.342;2022-11-24T08:26:24;24.43;;;17.80;;
6223;SDS011;3145;42.726;23.342;2022-11-24T08:28:52;16.10;;;14.27;;
6223;SDS011;3145;42.726;23.342;2022-11-24T08:31:20;25.37;;;16.33;;
6223;SDS011;3145;42.726;23.342;2022-11-24T08:33:46;27.13;;;20.13;;
6223;SDS011;3145;42.726;23.342;2022-11-24T08:36:14;25.63;;;20.60;;
6223;SDS011;3145;42.726;23.342;2022-11-24T08:38:42;13.33;;;11.63;;
6223;SDS011;3145;42.726;23.342;2022-11-24T08:41:10;14.77;;;12.33;;
6223;SDS011;3145;42.726;23.342;2022-11-24T08:43:40;23.87;;;19.90;;
6223;SDS011;3145;42.726;23.342;2022-11-24T08:46:08;18.83;;;15.47;;
6223;SDS011;3145;42.726;23.342;2022-11-24T08:48:36;11.40;;;10.07;;
6223;SDS011;3145;42.726;23.342;2022-11-24T08:51:05;11.30;;;10.07;;
6223;SDS011;3145;42.726;23.342;2022-11-24T08:53:32;24.20;;;15.83;;
6223;SDS011;3145;42.726;23.342;2022-11-24T08:55:59;10.77;;;9.67;;
6223;SDS011;3145;42.726;23.342;2022-11-24T08:58:27;13.40;;;10.40;;
6223;SDS011;3145;42.726;23.342;2022-11-24T09:01:01;13.60;;;12.20;;
6223;SDS011;3145;42.726;23.342;2022-11-24T09:03:29;9.03;;;8.13;;
6223;SDS011;3145;42.726;23.342;2022-11-24T09:05:56;10.10;;;9.10;;
6223;SDS011;3145;42.726;23.342;2022-11-24T09:08:23;13.10;;;9.57;;
6223;SDS011;3145;42.726;23.342;2022-11-24T09:10:49;7.57;;;6.97;;
6223;SDS011;3145;42.726;23.342;2022-11-24T09:13:16;9.23;;;6.37;;
6223;SDS011;3145;42.726;23.342;2022-11-24T09:15:43;9.33;;;6.23;;
6223;SDS011;3145;42.726;23.342;2022-11-24T09:18:11;5.77;;;5.17;;
6223;SDS011;3145;42.726;23.342;2022-11-24T09:20:38;5.27;;;4.80;;
6223;SDS011;3145;42.726;23.342;2022-11-24T09:23:05;4.60;;;4.30;;
6223;SDS011;3145;42.726;23.342;2022-11-24T09:25:31;3.83;;;3.63;;
6223;SDS011;3145;42.726;23.342;2022-11-24T09:27:58;5.20;;;4.90;;
6223;SDS011;3145;42.726;23.342;2022-11-24T09:30:25;4.27;;;3.97;;
6223;SDS011;3145;42.726;23.342;2022-11-24T09:32:53;5.03;;;4.53;;
6223;SDS011;3145;42.726;23.342;2022-11-24T09:35:22;7.53;;;4.50;;
6223;SDS011;3145;42.726;23.342;2022-11-24T09:37:49;6.10;;;5.60;;
6223;SDS011;3145;42.726;23.342;2022-11-24T09:40:16;4.70;;;4.40;;
6223;SDS011;3145;42.726;23.342;2022-11-24T09:42:46;4.90;;;4.50;;
6223;SDS011;3145;42.726;23.342;2022-11-24T09:45:23;7.13;;;4.40;;
6223;SDS011;3145;42.726;23.342;2022-11-24T09:48:07;4.10;;;3.80;;
6223;SDS011;3145;42.726;23.342;2022-11-24T09:50:38;4.57;;;4.17;;
6223;SDS011;3145;42.726;23.342;2022-11-24T09:53:07;4.50;;;4.20;;
6223;SDS011;3145;42.726;23.342;2022-11-24T09:55:39;6.20;;;4.37;;
6223;SDS011;3145;42.726;23.342;2022-11-24T09:58:14;5.40;;;5.00;;
6223;SDS011;3145;42.726;23.342;2022-11-24T10:00:49;7.90;;;6.20;;
6223;SDS011;3145;42.726;23.342;2022-11-24T10:03:19;7.43;;;6.67;;
6223;SDS011;3145;42.726;23.342;2022-11-24T10:05:53;5.00;;;4.60;;
6223;SDS011;3145;42.726;23.342;2022-11-24T10:08:29;5.37;;;4.97;;
6223;SDS011;3145;42.726;23.342;2022-11-24T10:11:11;6.30;;;5.70;;
6223;SDS011;3145;42.726;23.342;2022-11-24T10:13:48;6.80;;;6.30;;
6223;SDS011;3145;42.726;23.342;2022-11-24T10:16:33;4.80;;;4.43;;
6223;SDS011;3145;42.726;23.342;2022-11-24T10:19:12;5.77;;;5.37;;
6223;SDS011;3145;42.726;23.342;2022-11-24T10:21:50;5.10;;;4.60;;
6223;SDS011;3145;42.726;23.342;2022-11-24T10:24:38;6.10;;;5.70;;
6223;SDS011;3145;42.726;23.342;2022-11-24T10:27:32;6.60;;;6.10;;
6223;SDS011;3145;42.726;23.342;2022-11-24T10:30:06;6.00;;;5.60;;
6223;SDS011;3145;42.726;23.342;2022-11-24T10:32:39;9.87;;;7.37;;
6223;SDS011;3145;42.726;23.342;2022-11-24T10:35:12;7.77;;;7.07;;
6223;SDS011;3145;42.726;23.342;2022-11-24T10:37:44;9.73;;;7.60;;
6223;SDS011;3145;42.726;23.342;2022-11-24T10:40:21;6.47;;;5.73;;
6223;SDS011;3145;42.726;23.342;2022-11-24T10:42:52;6.87;;;6.37;;
6223;SDS011;3145;42.726;23.342;2022-11-24T10:45:20;6.30;;;5.90;;
6223;SDS011;3145;42.726;23.342;2022-11-24T10:47:47;7.10;;;6.60;;
6223;SDS011;3145;42.726;23.342;2022-11-24T10:50:17;6.47;;;5.97;;
6223;SDS011;3145;42.726;23.342;2022-11-24T10:52:49;8.97;;;6.23;;
6223;SDS011;3145;42.726;23.342;2022-11-24T10:55:21;6.90;;;6.40;;
6223;SDS011;3145;42.726;23.342;2022-11-24T10:57:47;7.30;;;6.70;;
6223;SDS011;3145;42.726;23.342;2022-11-24T11:00:30;7.50;;;6.80;;
6223;SDS011;3145;42.726;23.342;2022-11-24T11:03:16;8.80;;;7.90;;
6223;SDS011;3145;42.726;23.342;2022-11-24T11:05:46;9.47;;;7.60;;
6223;SDS011;3145;42.726;23.342;2022-11-24T11:08:21;8.93;;;8.00;;
6223;SDS011;3145;42.726;23.342;2022-11-24T11:10:50;10.37;;;8.27;;
6223;SDS011;3145;42.726;23.342;2022-11-24T11:13:35;7.93;;;7.00;;
6223;SDS011;3145;42.726;23.342;2022-11-24T11:16:03;8.37;;;7.50;;
6223;SDS011;3145;42.726;23.342;2022-11-24T11:18:44;7.50;;;6.73;;
6223;SDS011;3145;42.726;23.342;2022-11-24T11:21:22;9.80;;;7.73;;
6223;SDS011;3145;42.726;23.342;2022-11-24T11:23:54;8.70;;;7.53;;
6223;SDS011;3145;42.726;23.342;2022-11-24T11:26:29;10.37;;;8.27;;
6223;SDS011;3145;42.726;23.342;2022-11-24T11:28:59;8.80;;;7.80;;
6223;SDS011;3145;42.726;23.342;2022-11-24T11:31:28;9.17;;;8.37;;
6223;SDS011;3145;42.726;23.342;2022-11-24T11:33:58;9.47;;;8.17;;
6223;SDS011;3145;42.726;23.342;2022-11-24T11:36:27;10.17;;;9.07;;
6223;SDS011;3145;42.726;23.342;2022-11-24T11:38:57;9.73;;;8.77;;
6223;SDS011;3145;42.726;23.342;2022-11-24T11:41:26;10.70;;;8.47;;
6223;SDS011;3145;42.726;23.342;2022-11-24T11:44:07;7.50;;;6.80;;
6223;SDS011;3145;42.726;23.342;2022-11-24T11:46:42;9.00;;;7.30;;
6223;SDS011;3145;42.726;23.342;2022-11-24T11:49:10;14.53;;;11.13;;
6223;SDS011;3145;42.726;23.342;2022-11-24T11:51:42;9.40;;;8.43;;
6223;SDS011;3145;42.726;23.342;2022-11-24T11:54:22;10.33;;;7.33;;
6223;SDS011;3145;42.726;23.342;2022-11-24T11:57:01;10.80;;;7.50;;
6223;SDS011;3145;42.726;23.342;2022-11-24T11:59:47;9.60;;;7.50;;
6223;SDS011;3145;42.726;23.342;2022-11-24T12:02:47;10.50;;;7.90;;
6223;SDS011;3145;42.726;23.342;2022-11-24T12:05:41;9.40;;;8.40;;
6223;SDS011;3145;42.726;23.342;2022-11-24T12:08:18;7.13;;;6.50;;
6223;SDS011;3145;42.726;23.342;2022-11-24T12:10:57;6.63;;;5.83;;
6223;SDS011;3145;42.726;23.342;2022-11-24T12:13:39;6.03;;;5.43;;
6223;SDS011;3145;42.726;23.342;2022-11-24T12:16:15;7.13;;;6.43;;
6223;SDS011;3145;42.726;23.342;2022-11-24T12:18:56;7.97;;;7.23;;
6223;SDS011;3145;42.726;23.342;2022-11-24T12:21:46;6.40;;;5.83;;
6223;SDS011;3145;42.726;23.342;2022-11-24T12:24:20;12.00;;;7.80;;
6223;SDS011;3145;42.726;23.342;2022-11-24T12:26:54;8.60;;;7.90;;
6223;SDS011;3145;42.726;23.342;2022-11-24T12:32:17;7.53;;;6.83;;
6223;SDS011;3145;42.726;23.342;2022-11-24T12:34:56;6.97;;;6.47;;
6223;SDS011;3145;42.726;23.342;2022-11-24T12:37:36;12.37;;;8.57;;
6223;SDS011;3145;42.726;23.342;2022-11-24T12:40:14;12.07;;;9.40;;
6223;SDS011;3145;42.726;23.342;2022-11-24T12:42:51;12.23;;;9.60;;
6223;SDS011;3145;42.726;23.342;2022-11-24T12:45:31;7.83;;;7.23;;
6223;SDS011;3145;42.726;23.342;2022-11-24T12:48:08;10.13;;;9.23;;
6223;SDS011;3145;42.726;23.342;2022-11-24T12:50:53;7.20;;;6.60;;
6223;SDS011;3145;42.726;23.342;2022-11-24T12:53:21;8.23;;;7.30;;
6223;SDS011;3145;42.726;23.342;2022-11-24T12:55:50;7.23;;;6.70;;
6223;SDS011;3145;42.726;23.342;2022-11-24T12:58:21;8.97;;;8.17;;
6223;SDS011;3145;42.726;23.342;2022-11-24T13:00:57;10.60;;;9.60;;
6223;SDS011;3145;42.726;23.342;2022-11-24T13:03:36;9.93;;;8.53;;
6223;SDS011;3145;42.726;23.342;2022-11-24T13:06:11;7.93;;;6.97;;
6223;SDS011;3145;42.726;23.342;2022-11-24T13:08:41;9.67;;;8.30;;
6223;SDS011;3145;42.726;23.342;2022-11-24T13:11:25;8.57;;;7.73;;
6223;SDS011;3145;42.726;23.342;2022-11-24T13:14:05;8.83;;;8.00;;
6223;SDS011;3145;42.726;23.342;2022-11-24T13:16:46;11.57;;;8.93;;
6223;SDS011;3145;42.726;23.342;2022-11-24T13:19:16;9.20;;;8.30;;
6223;SDS011;3145;42.726;23.342;2022-11-24T13:21:46;12.87;;;9.60;;
6223;SDS011;3145;42.726;23.342;2022-11-24T13:24:29;9.40;;;8.50;;
6223;SDS011;3145;42.726;23.342;2022-11-24T13:27:21;7.03;;;6.53;;
6223;SDS011;3145;42.726;23.342;2022-11-24T13:29:54;9.40;;;8.50;;
6223;SDS011;3145;42.726;23.342;2022-11-24T13:35:24;10.53;;;8.47;;
6223;SDS011;3145;42.726;23.342;2022-11-24T13:37:51;7.47;;;6.77;;
6223;SDS011;3145;42.726;23.342;2022-11-24T13:40:37;7.07;;;6.47;;
6223;SDS011;3145;42.726;23.342;2022-11-24T13:43:18;10.60;;;7.30;;
6223;SDS011;3145;42.726;23.342;2022-11-24T13:45:48;7.07;;;6.57;;
6223;SDS011;3145;42.726;23.342;2022-11-24T13:51:24;7.83;;;6.27;;
6223;SDS011;3145;42.726;23.342;2022-11-24T13:53:58;9.30;;;8.30;;
6223;SDS011;3145;42.726;23.342;2022-11-24T13:56:27;13.03;;;10.27;;
6223;SDS011;3145;42.726;23.342;2022-11-24T13:58:56;6.70;;;6.13;;
6223;SDS011;3145;42.726;23.342;2022-11-24T14:01:27;8.23;;;7.20;;
6223;SDS011;3145;42.726;23.342;2022-11-24T14:06:45;6.80;;;6.20;;
6223;SDS011;3145;42.726;23.342;2022-11-24T14:09:21;5.53;;;5.13;;
6223;SDS011;3145;42.726;23.342;2022-11-24T14:11:56;10.13;;;8.63;;
6223;SDS011;3145;42.726;23.342;2022-11-24T14:14:26;9.00;;;6.60;;
6223;SDS011;3145;42.726;23.342;2022-11-24T14:19:45;9.43;;;8.30;;
6223;SDS011;3145;42.726;23.342;2022-11-24T14:22:14;10.63;;;7.40;;
6223;SDS011;3145;42.726;23.342;2022-11-24T14:24:43;6.83;;;6.20;;
6223;SDS011;3145;42.726;23.342;2022-11-24T14:27:16;10.33;;;6.33;;
6223;SDS011;3145;42.726;23.342;2022-11-24T14:29:52;8.40;;;7.60;;
6223;SDS011;3145;42.726;23.342;2022-11-24T14:32:22;9.37;;;7.20;;
6223;SDS011;3145;42.726;23.342;2022-11-24T14:34:49;10.37;;;6.40;;
6223;SDS011;3145;42.726;23.342;2022-11-24T14:37:16;9.77;;;7.50;;
6223;SDS011;3145;42.726;23.342;2022-11-24T14:39:43;9.80;;;7.40;;
6223;SDS011;3145;42.726;23.342;2022-11-24T14:42:14;8.30;;;7.50;;
6223;SDS011;3145;42.726;23.342;2022-11-24T14:44:44;7.60;;;7.00;;
6223;SDS011;3145;42.726;23.342;2022-11-24T14:47:16;8.67;;;7.97;;
6223;SDS011;3145;42.726;23.342;2022-11-24T14:49:48;10.13;;;9.30;;
6223;SDS011;3145;42.726;23.342;2022-11-24T14:52:16;7.97;;;7.27;;
6223;SDS011;3145;42.726;23.342;2022-11-24T14:54:45;7.97;;;7.10;;
6223;SDS011;3145;42.726;23.342;2022-11-24T14:57:24;10.53;;;9.53;;
6223;SDS011;3145;42.726;23.342;2022-11-24T15:00:06;9.40;;;8.70;;
6223;SDS011;3145;42.726;23.342;2022-11-24T15:02:42;10.00;;;9.00;;
6223;SDS011;3145;42.726;23.342;2022-11-24T15:05:14;8.93;;;8.13;;
6223;SDS011;3145;42.726;23.342;2022-11-24T15:07:41;15.67;;;10.40;;
6223;SDS011;3145;42.726;23.342;2022-11-24T15:10:17;12.80;;;10.07;;
6223;SDS011;3145;42.726;23.342;2022-11-24T15:12:51;9.83;;;8.93;;
6223;SDS011;3145;42.726;23.342;2022-11-24T15:15:21;9.67;;;7.27;;